sensor_id;sensor_type;location;lat;lon;timestamp;P1;durP1;ratioP1;P2;durP2;ratioP2
46110;SDS011;31849;55.992;37.252;2023-05-29T00:00:19;5.40;;;2.08;;
46110;SDS011;31849;55.992;37.252;2023-05-29T00:05:23;6.60;;;2.63;;
46110;SDS011;31849;55.992;37.252;2023-05-29T00:10:29;4.57;;;2.20;;
46110;SDS011;31849;55.992;37.252;2023-05-29T00:15:33;5.07;;;2.15;;
46110;SDS011;31849;55.992;37.252;2023-05-29T00:20:37;9.17;;;2.30;;
46110;SDS011;31849;55.992;37.252;2023-05-29T00:25:43;4.60;;;2.63;;
46110;SDS011;31849;55.992;37.252;2023-05-29T00:30:46;3.85;;;2.13;;
46110;SDS011;31849;55.992;37.252;2023-05-29T00:36:07;4.30;;;2.72;;
46110;SDS011;31849;55.992;37.252;2023-05-29T00:46:18;5.80;;;2.70;;
46110;SDS011;31849;55.992;37.252;2023-05-29T00:51:22;4.78;;;2.70;;
46110;SDS011;31849;55.992;37.252;2023-05-29T00:56:47;5.90;;;2.65;;
46110;SDS011;31849;55.992;37.252;2023-05-29T01:02:06;6.97;;;2.95;;
46110;SDS011;31849;55.992;37.252;2023-05-29T01:07:10;5.60;;;2.80;;
46110;SDS011;31849;55.992;37.252;2023-05-29T01:12:33;5.45;;;2.97;;
46110;SDS011;31849;55.992;37.252;2023-05-29T01:17:45;5.28;;;2.70;;
46110;SDS011;31849;55.992;37.252;2023-05-29T01:23:07;5.15;;;2.83;;
46110;SDS011;31849;55.992;37.252;2023-05-29T01:28:23;6.33;;;2.77;;
46110;SDS011;31849;55.992;37.252;2023-05-29T01:33:51;6.28;;;2.60;;
46110;SDS011;31849;55.992;37.252;2023-05-29T01:38:56;5.05;;;2.97;;
46110;SDS011;31849;55.992;37.252;2023-05-29T01:44:13;5.95;;;2.92;;
46110;SDS011;31849;55.992;37.252;2023-05-29T01:49:33;5.65;;;2.92;;
46110;SDS011;31849;55.992;37.252;2023-05-29T01:54:39;5.68;;;2.75;;
46110;SDS011;31849;55.992;37.252;2023-05-29T01:59:44;5.15;;;2.78;;
46110;SDS011;31849;55.992;37.252;2023-05-29T02:04:48;5.88;;;2.63;;
46110;SDS011;31849;55.992;37.252;2023-05-29T02:09:53;4.20;;;2.70;;
46110;SDS011;31849;55.992;37.252;2023-05-29T02:14:58;5.95;;;2.58;;
46110;SDS011;31849;55.992;37.252;2023-05-29T02:20:06;5.28;;;2.38;;
46110;SDS011;31849;55.992;37.252;2023-05-29T02:25:12;6.10;;;2.33;;
46110;SDS011;31849;55.992;37.252;2023-05-29T02:30:17;4.43;;;2.50;;
46110;SDS011;31849;55.992;37.252;2023-05-29T02:35:21;6.75;;;2.38;;
46110;SDS011;31849;55.992;37.252;2023-05-29T02:40:25;5.93;;;2.37;;
46110;SDS011;31849;55.992;37.252;2023-05-29T02:45:30;6.35;;;2.13;;
46110;SDS011;31849;55.992;37.252;2023-05-29T02:50:33;5.05;;;2.30;;
46110;SDS011;31849;55.992;37.252;2023-05-29T02:55:37;3.40;;;1.90;;
46110;SDS011;31849;55.992;37.252;2023-05-29T03:00:43;4.40;;;2.80;;
46110;SDS011;31849;55.992;37.252;2023-05-29T03:06:17;5.07;;;2.05;;
46110;SDS011;31849;55.992;37.252;2023-05-29T03:11:43;3.53;;;1.92;;
46110;SDS011;31849;55.992;37.252;2023-05-29T03:17:06;3.22;;;1.88;;
46110;SDS011;31849;55.992;37.252;2023-05-29T03:22:10;6.50;;;1.92;;
46110;SDS011;31849;55.992;37.252;2023-05-29T03:27:13;3.40;;;1.90;;
46110;SDS011;31849;55.992;37.252;2023-05-29T03:32:41;4.53;;;1.65;;
46110;SDS011;31849;55.992;37.252;2023-05-29T03:38:01;2.78;;;1.48;;
46110;SDS011;31849;55.992;37.252;2023-05-29T03:43:05;4.20;;;1.60;;
46110;SDS011;31849;55.992;37.252;2023-05-29T03:48:24;4.72;;;1.63;;
46110;SDS011;31849;55.992;37.252;2023-05-29T03:53:28;4.90;;;1.60;;
46110;SDS011;31849;55.992;37.252;2023-05-29T03:58:31;5.13;;;1.80;;
46110;SDS011;31849;55.992;37.252;2023-05-29T04:03:36;4.13;;;1.83;;
46110;SDS011;31849;55.992;37.252;2023-05-29T04:08:57;4.35;;;2.08;;
46110;SDS011;31849;55.992;37.252;2023-05-29T04:14:02;5.30;;;1.73;;
46110;SDS011;31849;55.992;37.252;2023-05-29T04:19:06;3.30;;;1.50;;
46110;SDS011;31849;55.992;37.252;2023-05-29T04:24:10;4.22;;;1.60;;
46110;SDS011;31849;55.992;37.252;2023-05-29T04:29:14;5.05;;;1.70;;
46110;SDS011;31849;55.992;37.252;2023-05-29T04:34:20;3.72;;;1.98;;
46110;SDS011;31849;55.992;37.252;2023-05-29T04:39:23;4.18;;;1.80;;
46110;SDS011;31849;55.992;37.252;2023-05-29T04:44:50;3.13;;;1.70;;
46110;SDS011;31849;55.992;37.252;2023-05-29T04:49:55;2.83;;;1.70;;
46110;SDS011;31849;55.992;37.252;2023-05-29T04:54:59;4.20;;;2.08;;
46110;SDS011;31849;55.992;37.252;2023-05-29T05:00:05;4.38;;;1.70;;
46110;SDS011;31849;55.992;37.252;2023-05-29T05:05:30;3.17;;;1.67;;
46110;SDS011;31849;55.992;37.252;2023-05-29T05:10:35;2.80;;;1.52;;
46110;SDS011;31849;55.992;37.252;2023-05-29T05:15:38;3.53;;;1.60;;
46110;SDS011;31849;55.992;37.252;2023-05-29T05:21:03;4.65;;;1.85;;
46110;SDS011;31849;55.992;37.252;2023-05-29T05:26:07;2.72;;;1.65;;
46110;SDS011;31849;55.992;37.252;2023-05-29T05:31:29;2.08;;;1.50;;
46110;SDS011;31849;55.992;37.252;2023-05-29T05:36:49;2.88;;;1.67;;
46110;SDS011;31849;55.992;37.252;2023-05-29T05:41:53;3.00;;;1.60;;
46110;SDS011;31849;55.992;37.252;2023-05-29T05:46:57;4.43;;;2.25;;
46110;SDS011;31849;55.992;37.252;2023-05-29T05:52:02;3.20;;;1.58;;
46110;SDS011;31849;55.992;37.252;2023-05-29T05:57:25;4.32;;;1.80;;
46110;SDS011;31849;55.992;37.252;2023-05-29T06:02:43;3.45;;;1.60;;
46110;SDS011;31849;55.992;37.252;2023-05-29T06:08:06;2.87;;;1.60;;
46110;SDS011;31849;55.992;37.252;2023-05-29T06:13:11;2.70;;;1.77;;
46110;SDS011;31849;55.992;37.252;2023-05-29T06:18:33;4.88;;;1.60;;
46110;SDS011;31849;55.992;37.252;2023-05-29T06:23:39;3.25;;;1.65;;
46110;SDS011;31849;55.992;37.252;2023-05-29T06:28:43;3.45;;;1.42;;
46110;SDS011;31849;55.992;37.252;2023-05-29T06:33:46;1.80;;;1.50;;
46110;SDS011;31849;55.992;37.252;2023-05-29T06:39:06;4.43;;;1.50;;
46110;SDS011;31849;55.992;37.252;2023-05-29T06:44:29;2.47;;;1.50;;
46110;SDS011;31849;55.992;37.252;2023-05-29T06:49:33;2.83;;;1.60;;
46110;SDS011;31849;55.992;37.252;2023-05-29T06:54:38;2.60;;;1.40;;
46110;SDS011;31849;55.992;37.252;2023-05-29T06:59:43;2.00;;;1.33;;
46110;SDS011;31849;55.992;37.252;2023-05-29T07:04:47;2.00;;;1.48;;
46110;SDS011;31849;55.992;37.252;2023-05-29T07:09:52;2.38;;;1.40;;
46110;SDS011;31849;55.992;37.252;2023-05-29T07:14:56;2.80;;;1.95;;
46110;SDS011;31849;55.992;37.252;2023-05-29T07:19:59;2.85;;;1.55;;
46110;SDS011;31849;55.992;37.252;2023-05-29T07:25:06;3.92;;;1.65;;
46110;SDS011;31849;55.992;37.252;2023-05-29T07:30:11;2.83;;;1.48;;
46110;SDS011;31849;55.992;37.252;2023-05-29T07:35:15;4.15;;;1.65;;
46110;SDS011;31849;55.992;37.252;2023-05-29T07:40:20;1.95;;;1.40;;
46110;SDS011;31849;55.992;37.252;2023-05-29T07:45:24;3.65;;;1.50;;
46110;SDS011;31849;55.992;37.252;2023-05-29T07:50:27;3.38;;;1.30;;
46110;SDS011;31849;55.992;37.252;2023-05-29T07:55:33;3.13;;;1.60;;
46110;SDS011;31849;55.992;37.252;2023-05-29T08:00:37;3.45;;;1.65;;
46110;SDS011;31849;55.992;37.252;2023-05-29T08:05:41;3.28;;;1.50;;
46110;SDS011;31849;55.992;37.252;2023-05-29T08:10:46;3.42;;;1.45;;
46110;SDS011;31849;55.992;37.252;2023-05-29T08:15:49;4.13;;;1.60;;
46110;SDS011;31849;55.992;37.252;2023-05-29T08:20:53;4.65;;;1.75;;
46110;SDS011;31849;55.992;37.252;2023-05-29T08:25:58;2.28;;;1.45;;
46110;SDS011;31849;55.992;37.252;2023-05-29T08:31:02;3.10;;;1.33;;
46110;SDS011;31849;55.992;37.252;2023-05-29T08:36:06;3.80;;;1.33;;
46110;SDS011;31849;55.992;37.252;2023-05-29T08:41:12;2.92;;;1.60;;
46110;SDS011;31849;55.992;37.252;2023-05-29T08:46:20;1.90;;;1.20;;
46110;SDS011;31849;55.992;37.252;2023-05-29T08:51:25;2.05;;;1.27;;
46110;SDS011;31849;55.992;37.252;2023-05-29T08:56:35;3.50;;;1.50;;
46110;SDS011;31849;55.992;37.252;2023-05-29T09:01:39;2.20;;;1.30;;
46110;SDS011;31849;55.992;37.252;2023-05-29T09:06:44;3.72;;;1.30;;
46110;SDS011;31849;55.992;37.252;2023-05-29T09:11:52;2.95;;;1.48;;
46110;SDS011;31849;55.992;37.252;2023-05-29T09:16:55;2.38;;;1.30;;
46110;SDS011;31849;55.992;37.252;2023-05-29T09:22:00;2.38;;;1.27;;
46110;SDS011;31849;55.992;37.252;2023-05-29T09:27:07;2.80;;;1.45;;
46110;SDS011;31849;55.992;37.252;2023-05-29T09:32:14;2.63;;;1.02;;
46110;SDS011;31849;55.992;37.252;2023-05-29T09:37:19;3.97;;;1.10;;
46110;SDS011;31849;55.992;37.252;2023-05-29T09:42:25;2.10;;;1.20;;
46110;SDS011;31849;55.992;37.252;2023-05-29T09:47:29;1.70;;;1.10;;
46110;SDS011;31849;55.992;37.252;2023-05-29T09:52:36;1.88;;;1.00;;
46110;SDS011;31849;55.992;37.252;2023-05-29T09:57:41;2.63;;;1.20;;
46110;SDS011;31849;55.992;37.252;2023-05-29T10:02:45;2.45;;;1.13;;
46110;SDS011;31849;55.992;37.252;2023-05-29T10:07:49;2.70;;;1.13;;
46110;SDS011;31849;55.992;37.252;2023-05-29T10:12:57;1.98;;;1.15;;
46110;SDS011;31849;55.992;37.252;2023-05-29T10:18:07;1.88;;;1.08;;
46110;SDS011;31849;55.992;37.252;2023-05-29T10:23:16;2.28;;;1.30;;
46110;SDS011;31849;55.992;37.252;2023-05-29T10:28:25;2.85;;;1.30;;
46110;SDS011;31849;55.992;37.252;2023-05-29T10:33:33;2.85;;;1.30;;
46110;SDS011;31849;55.992;37.252;2023-05-29T10:38:46;2.17;;;1.10;;
46110;SDS011;31849;55.992;37.252;2023-05-29T10:43:53;3.75;;;1.20;;
46110;SDS011;31849;55.992;37.252;2023-05-29T10:48:58;4.93;;;1.10;;
46110;SDS011;31849;55.992;37.252;2023-05-29T10:59:10;3.25;;;1.35;;
46110;SDS011;31849;55.992;37.252;2023-05-29T11:04:25;3.25;;;1.23;;
46110;SDS011;31849;55.992;37.252;2023-05-29T11:09:31;3.15;;;1.23;;
46110;SDS011;31849;55.992;37.252;2023-05-29T11:14:45;3.65;;;1.20;;
46110;SDS011;31849;55.992;37.252;2023-05-29T11:19:49;4.07;;;1.20;;
46110;SDS011;31849;55.992;37.252;2023-05-29T11:24:54;3.22;;;1.25;;
46110;SDS011;31849;55.992;37.252;2023-05-29T11:30:02;2.45;;;1.20;;
46110;SDS011;31849;55.992;37.252;2023-05-29T11:35:08;5.20;;;1.20;;
46110;SDS011;31849;55.992;37.252;2023-05-29T11:40:14;8.90;;;1.63;;
46110;SDS011;31849;55.992;37.252;2023-05-29T11:50:24;2.55;;;1.20;;
46110;SDS011;31849;55.992;37.252;2023-05-29T11:55:29;3.58;;;1.20;;
46110;SDS011;31849;55.992;37.252;2023-05-29T12:05:45;1.83;;;1.10;;
46110;SDS011;31849;55.992;37.252;2023-05-29T12:10:51;2.08;;;1.17;;
46110;SDS011;31849;55.992;37.252;2023-05-29T12:15:57;2.10;;;1.15;;
46110;SDS011;31849;55.992;37.252;2023-05-29T12:21:03;2.20;;;1.20;;
46110;SDS011;31849;55.992;37.252;2023-05-29T12:26:07;2.10;;;1.15;;
46110;SDS011;31849;55.992;37.252;2023-05-29T12:31:13;4.90;;;1.45;;
46110;SDS011;31849;55.992;37.252;2023-05-29T12:36:18;2.67;;;1.25;;
46110;SDS011;31849;55.992;37.252;2023-05-29T12:41:25;2.53;;;1.40;;
46110;SDS011;31849;55.992;37.252;2023-05-29T12:46:36;7.47;;;1.40;;
46110;SDS011;31849;55.992;37.252;2023-05-29T12:51:41;3.53;;;1.30;;
46110;SDS011;31849;55.992;37.252;2023-05-29T12:56:46;2.40;;;1.30;;
46110;SDS011;31849;55.992;37.252;2023-05-29T13:01:53;2.88;;;1.33;;
46110;SDS011;31849;55.992;37.252;2023-05-29T13:06:57;3.13;;;1.30;;
46110;SDS011;31849;55.992;37.252;2023-05-29T13:17:06;5.45;;;1.42;;
46110;SDS011;31849;55.992;37.252;2023-05-29T13:22:10;2.53;;;1.40;;
46110;SDS011;31849;55.992;37.252;2023-05-29T13:27:13;1.80;;;1.15;;
46110;SDS011;31849;55.992;37.252;2023-05-29T13:32:19;4.95;;;1.50;;
46110;SDS011;31849;55.992;37.252;2023-05-29T13:37:23;7.05;;;1.60;;
46110;SDS011;31849;55.992;37.252;2023-05-29T13:42:28;11.60;;;1.52;;
46110;SDS011;31849;55.992;37.252;2023-05-29T13:47:33;2.30;;;1.20;;
46110;SDS011;31849;55.992;37.252;2023-05-29T13:52:37;2.30;;;1.20;;
46110;SDS011;31849;55.992;37.252;2023-05-29T13:57:41;2.75;;;1.30;;
46110;SDS011;31849;55.992;37.252;2023-05-29T14:07:50;2.75;;;1.50;;
46110;SDS011;31849;55.992;37.252;2023-05-29T14:12:54;3.60;;;1.40;;
46110;SDS011;31849;55.992;37.252;2023-05-29T14:23:04;4.45;;;1.20;;
46110;SDS011;31849;55.992;37.252;2023-05-29T14:28:11;4.32;;;1.45;;
46110;SDS011;31849;55.992;37.252;2023-05-29T14:33:16;2.38;;;1.15;;
46110;SDS011;31849;55.992;37.252;2023-05-29T14:38:19;2.75;;;1.40;;
46110;SDS011;31849;55.992;37.252;2023-05-29T14:43:23;2.70;;;1.30;;
46110;SDS011;31849;55.992;37.252;2023-05-29T14:48:28;2.83;;;1.50;;
46110;SDS011;31849;55.992;37.252;2023-05-29T14:53:32;3.40;;;1.50;;
46110;SDS011;31849;55.992;37.252;2023-05-29T14:58:35;2.88;;;1.40;;
46110;SDS011;31849;55.992;37.252;2023-05-29T15:03:40;4.10;;;1.25;;
46110;SDS011;31849;55.992;37.252;2023-05-29T15:08:44;2.42;;;1.20;;
46110;SDS011;31849;55.992;37.252;2023-05-29T15:13:48;2.78;;;1.50;;
46110;SDS011;31849;55.992;37.252;2023-05-29T15:18:53;3.15;;;1.48;;
46110;SDS011;31849;55.992;37.252;2023-05-29T15:23:56;3.72;;;1.30;;
46110;SDS011;31849;55.992;37.252;2023-05-29T15:29:00;2.20;;;1.40;;
46110;SDS011;31849;55.992;37.252;2023-05-29T15:34:05;2.67;;;1.27;;
46110;SDS011;31849;55.992;37.252;2023-05-29T15:39:09;4.28;;;1.52;;
46110;SDS011;31849;55.992;37.252;2023-05-29T15:44:12;3.50;;;1.50;;
46110;SDS011;31849;55.992;37.252;2023-05-29T15:49:17;3.85;;;1.40;;
46110;SDS011;31849;55.992;37.252;2023-05-29T15:54:21;3.00;;;1.35;;
46110;SDS011;31849;55.992;37.252;2023-05-29T15:59:24;3.25;;;1.30;;
46110;SDS011;31849;55.992;37.252;2023-05-29T16:04:30;2.10;;;1.40;;
46110;SDS011;31849;55.992;37.252;2023-05-29T16:09:33;3.22;;;1.40;;
46110;SDS011;31849;55.992;37.252;2023-05-29T16:14:39;4.10;;;1.23;;
46110;SDS011;31849;55.992;37.252;2023-05-29T16:19:44;4.72;;;1.45;;
46110;SDS011;31849;55.992;37.252;2023-05-29T16:24:49;2.95;;;1.45;;
46110;SDS011;31849;55.992;37.252;2023-05-29T16:29:52;4.72;;;1.38;;
46110;SDS011;31849;55.992;37.252;2023-05-29T16:34:58;3.88;;;1.40;;
46110;SDS011;31849;55.992;37.252;2023-05-29T16:40:02;3.53;;;1.65;;
46110;SDS011;31849;55.992;37.252;2023-05-29T16:45:07;3.55;;;1.45;;
46110;SDS011;31849;55.992;37.252;2023-05-29T16:50:12;4.10;;;1.40;;
46110;SDS011;31849;55.992;37.252;2023-05-29T16:55:16;5.00;;;1.88;;
46110;SDS011;31849;55.992;37.252;2023-05-29T17:00:22;5.25;;;1.55;;
46110;SDS011;31849;55.992;37.252;2023-05-29T17:10:31;2.75;;;1.40;;
46110;SDS011;31849;55.992;37.252;2023-05-29T17:15:35;5.68;;;1.58;;
46110;SDS011;31849;55.992;37.252;2023-05-29T17:20:41;4.32;;;1.30;;
46110;SDS011;31849;55.992;37.252;2023-05-29T17:25:44;3.53;;;1.55;;
46110;SDS011;31849;55.992;37.252;2023-05-29T17:30:48;3.50;;;1.20;;
46110;SDS011;31849;55.992;37.252;2023-05-29T17:35:53;3.58;;;1.67;;
46110;SDS011;31849;55.992;37.252;2023-05-29T17:40:57;2.80;;;1.30;;
46110;SDS011;31849;55.992;37.252;2023-05-29T17:46:01;3.53;;;1.40;;
46110;SDS011;31849;55.992;37.252;2023-05-29T17:51:06;4.47;;;1.65;;
46110;SDS011;31849;55.992;37.252;2023-05-29T17:56:10;5.90;;;1.52;;
46110;SDS011;31849;55.992;37.252;2023-05-29T18:01:14;4.20;;;1.57;;
46110;SDS011;31849;55.992;37.252;2023-05-29T18:06:20;6.45;;;1.70;;
46110;SDS011;31849;55.992;37.252;2023-05-29T18:11:24;3.05;;;1.70;;
46110;SDS011;31849;55.992;37.252;2023-05-29T18:16:33;5.57;;;1.77;;
46110;SDS011;31849;55.992;37.252;2023-05-29T18:21:39;12.43;;;2.88;;
46110;SDS011;31849;55.992;37.252;2023-05-29T18:26:42;10.27;;;2.58;;
46110;SDS011;31849;55.992;37.252;2023-05-29T18:31:46;7.93;;;1.88;;
46110;SDS011;31849;55.992;37.252;2023-05-29T18:36:51;7.57;;;1.73;;
46110;SDS011;31849;55.992;37.252;2023-05-29T18:41:55;6.43;;;2.30;;
46110;SDS011;31849;55.992;37.252;2023-05-29T18:46:58;8.77;;;3.13;;
46110;SDS011;31849;55.992;37.252;2023-05-29T18:52:04;6.53;;;2.20;;
46110;SDS011;31849;55.992;37.252;2023-05-29T18:57:08;5.95;;;2.40;;
46110;SDS011;31849;55.992;37.252;2023-05-29T19:02:12;7.78;;;2.25;;
46110;SDS011;31849;55.992;37.252;2023-05-29T19:07:17;7.73;;;2.43;;
46110;SDS011;31849;55.992;37.252;2023-05-29T19:12:21;5.10;;;2.25;;
46110;SDS011;31849;55.992;37.252;2023-05-29T19:17:24;9.35;;;2.95;;
46110;SDS011;31849;55.992;37.252;2023-05-29T19:22:29;8.93;;;2.65;;
46110;SDS011;31849;55.992;37.252;2023-05-29T19:27:33;9.25;;;3.10;;
46110;SDS011;31849;55.992;37.252;2023-05-29T19:32:36;7.40;;;3.00;;
46110;SDS011;31849;55.992;37.252;2023-05-29T19:37:41;9.90;;;2.70;;
46110;SDS011;31849;55.992;37.252;2023-05-29T19:42:45;9.88;;;3.70;;
46110;SDS011;31849;55.992;37.252;2023-05-29T19:47:49;6.47;;;2.70;;
46110;SDS011;31849;55.992;37.252;2023-05-29T19:52:54;8.25;;;2.97;;
46110;SDS011;31849;55.992;37.252;2023-05-29T19:57:57;8.38;;;3.10;;
46110;SDS011;31849;55.992;37.252;2023-05-29T20:03:01;11.17;;;3.37;;
46110;SDS011;31849;55.992;37.252;2023-05-29T20:08:06;12.07;;;3.40;;
46110;SDS011;31849;55.992;37.252;2023-05-29T20:13:10;12.07;;;3.58;;
46110;SDS011;31849;55.992;37.252;2023-05-29T20:18:15;9.20;;;3.20;;
46110;SDS011;31849;55.992;37.252;2023-05-29T20:23:20;10.30;;;3.10;;
46110;SDS011;31849;55.992;37.252;2023-05-29T20:28:24;12.45;;;3.30;;
46110;SDS011;31849;55.992;37.252;2023-05-29T20:33:28;12.02;;;3.22;;
46110;SDS011;31849;55.992;37.252;2023-05-29T20:38:33;17.65;;;4.22;;
46110;SDS011;31849;55.992;37.252;2023-05-29T20:43:38;11.93;;;3.50;;
46110;SDS011;31849;55.992;37.252;2023-05-29T20:48:42;9.85;;;3.17;;
46110;SDS011;31849;55.992;37.252;2023-05-29T20:53:48;15.60;;;3.80;;
46110;SDS011;31849;55.992;37.252;2023-05-29T20:58:52;10.68;;;3.00;;
46110;SDS011;31849;55.992;37.252;2023-05-29T21:03:55;10.02;;;3.70;;
46110;SDS011;31849;55.992;37.252;2023-05-29T21:09:00;15.03;;;3.40;;
46110;SDS011;31849;55.992;37.252;2023-05-29T21:14:06;8.57;;;3.50;;
46110;SDS011;31849;55.992;37.252;2023-05-29T21:19:10;13.05;;;3.35;;
46110;SDS011;31849;55.992;37.252;2023-05-29T21:24:15;13.80;;;3.83;;
46110;SDS011;31849;55.992;37.252;2023-05-29T21:29:18;9.40;;;3.83;;
46110;SDS011;31849;55.992;37.252;2023-05-29T21:34:22;14.15;;;3.90;;
46110;SDS011;31849;55.992;37.252;2023-05-29T21:39:28;13.57;;;3.92;;
46110;SDS011;31849;55.992;37.252;2023-05-29T21:44:31;13.13;;;3.60;;
46110;SDS011;31849;55.992;37.252;2023-05-29T21:49:35;9.00;;;3.70;;
46110;SDS011;31849;55.992;37.252;2023-05-29T21:54:40;10.52;;;3.53;;
46110;SDS011;31849;55.992;37.252;2023-05-29T21:59:44;16.30;;;3.72;;
46110;SDS011;31849;55.992;37.252;2023-05-29T22:04:47;11.38;;;3.78;;
46110;SDS011;31849;55.992;37.252;2023-05-29T22:09:52;9.77;;;3.30;;
46110;SDS011;31849;55.992;37.252;2023-05-29T22:14:56;12.98;;;4.32;;
46110;SDS011;31849;55.992;37.252;2023-05-29T22:20:00;16.60;;;3.70;;
46110;SDS011;31849;55.992;37.252;2023-05-29T22:25:09;10.95;;;4.15;;
46110;SDS011;31849;55.992;37.252;2023-05-29T22:30:14;9.80;;;3.20;;
46110;SDS011;31849;55.992;37.252;2023-05-29T22:35:18;18.80;;;3.95;;
46110;SDS011;31849;55.992;37.252;2023-05-29T22:40:23;13.75;;;4.05;;
46110;SDS011;31849;55.992;37.252;2023-05-29T22:45:26;7.22;;;3.63;;
46110;SDS011;31849;55.992;37.252;2023-05-29T22:50:30;11.35;;;3.78;;
46110;SDS011;31849;55.992;37.252;2023-05-29T22:55:35;8.85;;;3.60;;
46110;SDS011;31849;55.992;37.252;2023-05-29T23:00:39;16.17;;;3.50;;
46110;SDS011;31849;55.992;37.252;2023-05-29T23:05:42;12.10;;;3.50;;
46110;SDS011;31849;55.992;37.252;2023-05-29T23:10:49;11.45;;;3.55;;
46110;SDS011;31849;55.992;37.252;2023-05-29T23:15:53;15.40;;;3.90;;
46110;SDS011;31849;55.992;37.252;2023-05-29T23:20:57;7.93;;;3.00;;
46110;SDS011;31849;55.992;37.252;2023-05-29T23:26:02;8.95;;;3.17;;
46110;SDS011;31849;55.992;37.252;2023-05-29T23:31:07;9.48;;;3.75;;
46110;SDS011;31849;55.992;37.252;2023-05-29T23:36:10;9.07;;;4.40;;
46110;SDS011;31849;55.992;37.252;2023-05-29T23:41:15;12.20;;;3.60;;
46110;SDS011;31849;55.992;37.252;2023-05-29T23:46:19;9.35;;;3.30;;
46110;SDS011;31849;55.992;37.252;2023-05-29T23:51:22;10.18;;;3.50;;
46110;SDS011;31849;55.992;37.252;2023-05-29T23:56:30;8.02;;;3.50;;
